Time;durP1;ratioP1;P1;durP2;ratioP2;P2;SDS_P1;SDS_P2;PMS_P1;PMS_P2;Temp;Humidity;BMP_temperature;BMP_pressure;BME280_temperature;BME280_humidity;BME280_pressure;Samples;Min_cycle;Max_cycle;Signal;HPM_P1;HPM_P2
2022/07/18 00:02:03;;;;;;;140.80;129.00;;;19.90;67.30;;;;;;5031121;28;20123;-72
2022/07/18 00:04:30;;;;;;;140.68;128.98;;;19.80;67.30;;;;;;5030542;28;20054;-72
2022/07/18 00:06:57;;;;;;;140.38;128.68;;;19.80;67.40;;;;;;5032058;28;20061;-72
2022/07/18 00:09:24;;;;;;;141.73;129.93;;;19.80;67.30;;;;;;5031132;28;20419;-72
2022/07/18 00:11:53;;;;;;;140.70;128.85;;;19.70;67.70;;;;;;5031898;28;20050;-72
2022/07/18 00:14:22;;;;;;;141.40;129.57;;;19.70;68.30;;;;;;5032095;28;20137;-72
2022/07/18 00:16:49;;;;;;;142.10;130.18;;;19.60;68.40;;;;;;5031203;28;20120;-73
2022/07/18 00:19:16;;;;;;;140.65;128.60;;;19.60;68.40;;;;;;5031812;28;20139;-72
2022/07/18 00:21:43;;;;;;;140.13;128.32;;;19.50;68.30;;;;;;5030700;28;20049;-72
2022/07/18 00:24:10;;;;;;;143.05;130.98;;;19.50;68.20;;;;;;5030655;28;20089;-72
2022/07/18 00:26:37;;;;;;;140.07;128.27;;;19.40;68.10;;;;;;5030413;28;20042;-72
2022/07/18 00:29:06;;;;;;;140.00;128.00;;;19.40;68.20;;;;;;5024785;28;20058;-71
2022/07/18 00:31:33;;;;;;;139.38;127.45;;;19.40;68.30;;;;;;5020915;28;20610;-72
2022/07/18 00:34:00;;;;;;;139.88;127.88;;;19.30;68.10;;;;;;5022961;28;21494;-72
2022/07/18 00:36:26;;;;;;;137.48;125.68;;;19.30;68.40;;;;;;5030548;28;20053;-72
2022/07/18 00:38:53;;;;;;;138.85;127.07;;;19.20;68.80;;;;;;5029947;28;20052;-72
2022/07/18 00:41:21;;;;;;;136.90;125.30;;;19.20;69.40;;;;;;5031645;28;20127;-71
2022/07/18 00:43:48;;;;;;;136.88;125.18;;;19.10;69.50;;;;;;5031070;28;20431;-72
2022/07/18 00:46:20;;;;;;;138.15;126.25;;;19.10;69.40;;;;;;5032032;28;20873;-72
2022/07/18 00:48:47;;;;;;;138.32;126.35;;;19.00;69.50;;;;;;5030091;28;20426;-72
2022/07/18 00:51:16;;;;;;;140.70;128.55;;;19.00;69.50;;;;;;5031617;28;20153;-72
2022/07/18 00:53:43;;;;;;;135.43;123.72;;;19.00;69.60;;;;;;5031628;28;20497;-72
2022/07/18 00:56:12;;;;;;;133.93;122.43;;;18.90;70.10;;;;;;5030180;28;20052;-72
2022/07/18 00:58:39;;;;;;;135.18;123.68;;;18.90;71.30;;;;;;5031388;28;20057;-72
2022/07/18 01:03:51;;;;;;;133.93;122.47;;;18.80;72.50;;;;;;5027803;28;20481;-71
2022/07/18 01:06:18;;;;;;;136.00;123.93;;;18.80;72.60;;;;;;5031582;28;20125;-72
2022/07/18 01:08:45;;;;;;;136.32;124.65;;;18.70;73.00;;;;;;5027659;28;20575;-72
2022/07/18 01:11:13;;;;;;;134.43;122.88;;;18.70;72.60;;;;;;5031333;28;20132;-72
2022/07/18 01:13:41;;;;;;;135.07;123.47;;;18.60;72.40;;;;;;5028944;28;20493;-72
2022/07/18 01:16:08;;;;;;;136.52;124.65;;;18.60;72.30;;;;;;5031245;28;20141;-72
2022/07/18 01:18:36;;;;;;;135.45;123.85;;;18.60;72.50;;;;;;5027989;28;20145;-72
2022/07/18 01:21:04;;;;;;;135.82;124.18;;;18.60;72.40;;;;;;5028523;28;20054;-72
2022/07/18 01:23:31;;;;;;;136.07;124.38;;;18.50;72.60;;;;;;5029841;28;20053;-72
2022/07/18 01:25:58;;;;;;;135.27;123.72;;;18.50;72.80;;;;;;5027929;28;20056;-72
2022/07/18 01:28:26;;;;;;;135.80;123.97;;;18.40;73.40;;;;;;5030576;28;20049;-72
2022/07/18 01:30:53;;;;;;;136.60;124.90;;;18.30;73.90;;;;;;5018338;28;20571;-72
2022/07/18 01:33:19;;;;;;;138.93;126.95;;;18.30;74.30;;;;;;5018836;28;20058;-72
2022/07/18 01:35:46;;;;;;;136.63;124.80;;;18.20;74.70;;;;;;5019659;28;20397;-72
2022/07/18 01:38:17;;;;;;;137.18;124.80;;;18.20;75.00;;;;;;5020594;28;20141;-72
2022/07/18 01:40:44;;;;;;;135.52;123.53;;;18.10;74.70;;;;;;5019667;28;20046;-72
2022/07/18 01:43:11;;;;;;;133.68;121.95;;;18.10;75.00;;;;;;5029930;28;20148;-72
2022/07/18 01:45:38;;;;;;;137.05;125.00;;;18.10;74.80;;;;;;5029869;28;20129;-72
2022/07/18 01:48:06;;;;;;;134.15;122.25;;;18.00;75.20;;;;;;5029145;28;20049;-72
2022/07/18 01:50:33;;;;;;;134.48;122.28;;;18.00;75.10;;;;;;5033505;28;20056;-71
2022/07/18 01:52:59;;;;;;;135.30;123.40;;;18.00;75.10;;;;;;5033385;28;20567;-72
2022/07/18 01:55:28;;;;;;;134.98;122.88;;;17.90;74.70;;;;;;5033808;28;20053;-71
2022/07/18 01:57:55;;;;;;;134.65;122.63;;;18.00;74.90;;;;;;5032819;28;20508;-72
2022/07/18 02:00:22;;;;;;;135.38;123.57;;;17.90;75.50;;;;;;5032859;28;20505;-72
2022/07/18 02:02:48;;;;;;;133.75;121.85;;;17.90;76.10;;;;;;5034213;28;20161;-72
2022/07/18 02:05:15;;;;;;;135.02;123.20;;;17.80;76.70;;;;;;5032492;28;20060;-72
2022/07/18 02:07:43;;;;;;;134.48;122.68;;;17.80;77.30;;;;;;5032221;28;20148;-72
2022/07/18 02:10:12;;;;;;;135.88;123.95;;;17.70;77.50;;;;;;5033061;28;20495;-72
2022/07/18 02:12:40;;;;;;;136.38;124.20;;;17.70;77.80;;;;;;5032555;28;20153;-72
2022/07/18 02:15:09;;;;;;;135.63;123.43;;;17.70;77.90;;;;;;5031464;28;20054;-72
2022/07/18 02:17:37;;;;;;;136.10;124.20;;;17.70;78.20;;;;;;5032638;28;20053;-72
2022/07/18 02:20:05;;;;;;;136.48;124.38;;;17.60;78.60;;;;;;5032282;28;20046;-72
2022/07/18 02:22:32;;;;;;;136.82;124.70;;;17.60;78.70;;;;;;5032380;28;20054;-72
2022/07/18 02:24:59;;;;;;;135.48;123.30;;;17.50;78.90;;;;;;5032801;28;20141;-72
2022/07/18 02:27:26;;;;;;;137.52;124.80;;;17.50;79.60;;;;;;5030934;28;20141;-72
2022/07/18 02:29:54;;;;;;;134.40;122.35;;;17.40;80.10;;;;;;5025600;28;20137;-72
2022/07/18 02:32:23;;;;;;;132.77;121.07;;;17.40;80.50;;;;;;5018290;28;20145;-72
2022/07/18 02:34:50;;;;;;;133.35;121.50;;;17.40;80.70;;;;;;5008213;28;20142;-72
2022/07/18 02:37:16;;;;;;;134.82;122.85;;;17.30;80.80;;;;;;5024349;28;20132;-71
2022/07/18 02:39:44;;;;;;;133.13;121.43;;;17.30;80.80;;;;;;5018612;28;20113;-72
2022/07/18 02:42:12;;;;;;;131.25;119.38;;;17.30;81.00;;;;;;5033892;28;20069;-72
2022/07/18 02:44:38;;;;;;;131.90;119.95;;;17.20;81.20;;;;;;5019002;28;20232;-71
2022/07/18 02:47:07;;;;;;;132.93;120.82;;;17.20;81.20;;;;;;5023710;28;20065;-72
2022/07/18 02:49:34;;;;;;;132.38;120.47;;;17.10;81.10;;;;;;5033696;28;20181;-72
2022/07/18 02:52:03;;;;;;;133.27;120.78;;;17.10;81.10;;;;;;5030953;28;20132;-72
2022/07/18 02:54:31;;;;;;;134.07;121.75;;;17.10;81.10;;;;;;5033182;28;20057;-72
2022/07/18 02:56:58;;;;;;;135.25;122.88;;;17.10;80.90;;;;;;5031604;28;20112;-72
2022/07/18 02:59:26;;;;;;;133.10;120.90;;;17.10;80.90;;;;;;5031415;28;20089;-72
2022/07/18 03:01:53;;;;;;;131.40;119.28;;;17.00;81.20;;;;;;5029279;28;20050;-72
2022/07/18 03:04:22;;;;;;;133.13;121.15;;;17.00;81.60;;;;;;5031648;28;20642;-72
2022/07/18 03:06:50;;;;;;;134.40;122.38;;;17.00;82.00;;;;;;5028270;28;20562;-71
2022/07/18 03:09:18;;;;;;;132.73;120.93;;;16.90;82.40;;;;;;5030722;28;20062;-72
2022/07/18 03:11:45;;;;;;;132.93;120.80;;;16.90;82.60;;;;;;5031662;28;20472;-72
2022/07/18 03:14:12;;;;;;;133.15;121.05;;;16.80;82.70;;;;;;5029333;28;20045;-72
2022/07/18 03:16:39;;;;;;;133.38;121.28;;;16.80;82.70;;;;;;5032102;28;20129;-71
2022/07/18 03:19:06;;;;;;;131.82;120.00;;;16.80;83.00;;;;;;5028393;28;20048;-72
2022/07/18 03:21:35;;;;;;;134.88;122.68;;;16.80;83.30;;;;;;5030843;28;20077;-72
2022/07/18 03:24:01;;;;;;;133.30;121.15;;;16.70;83.50;;;;;;5031900;28;20129;-72
2022/07/18 03:26:28;;;;;;;133.90;121.53;;;16.70;83.60;;;;;;5032902;28;20714;-72
2022/07/18 03:28:56;;;;;;;131.23;119.13;;;16.70;83.50;;;;;;5028166;28;20042;-72
2022/07/18 03:31:23;;;;;;;132.40;120.18;;;16.70;83.50;;;;;;5021964;28;20424;-72
2022/07/18 03:33:49;;;;;;;132.95;120.55;;;16.70;83.80;;;;;;5021029;28;20058;-72
2022/07/18 03:36:16;;;;;;;131.70;119.60;;;16.70;84.10;;;;;;5021434;28;20062;-72
2022/07/18 03:38:45;;;;;;;130.57;118.35;;;16.60;84.40;;;;;;5023211;28;20046;-71
2022/07/18 03:41:12;;;;;;;132.68;120.57;;;16.60;84.50;;;;;;5021080;28;20130;-72
2022/07/18 03:43:39;;;;;;;131.60;119.45;;;16.60;84.80;;;;;;5022462;28;20049;-72
2022/07/18 03:46:06;;;;;;;130.80;118.75;;;16.60;85.20;;;;;;5019885;28;20052;-71
2022/07/18 03:48:33;;;;;;;130.30;118.20;;;16.60;85.30;;;;;;5019905;28;20053;-71
2022/07/18 03:51:00;;;;;;;130.90;118.57;;;16.60;85.40;;;;;;5021228;28;20081;-71
2022/07/18 03:53:27;;;;;;;132.18;119.82;;;16.50;85.60;;;;;;5026084;28;20048;-72
2022/07/18 03:55:55;;;;;;;131.40;119.25;;;16.50;86.00;;;;;;5031184;28;20140;-72
2022/07/18 03:58:22;;;;;;;131.50;119.25;;;16.50;86.20;;;;;;5030873;28;20052;-72
2022/07/18 04:00:49;;;;;;;132.85;120.65;;;16.50;86.40;;;;;;5032199;28;20124;-72
2022/07/18 04:03:17;;;;;;;133.00;120.70;;;16.40;86.90;;;;;;5032696;28;20053;-72
2022/07/18 04:05:44;;;;;;;131.98;119.72;;;16.40;87.20;;;;;;5030908;28;20054;-72
2022/07/18 04:08:11;;;;;;;134.27;122.05;;;16.40;87.40;;;;;;5032086;28;20069;-72
2022/07/18 04:10:39;;;;;;;134.40;121.72;;;16.40;87.70;;;;;;5032299;28;20098;-72
2022/07/18 04:13:09;;;;;;;130.18;118.18;;;16.40;88.10;;;;;;5030197;28;20049;-72
2022/07/18 04:15:37;;;;;;;132.57;120.38;;;16.40;88.30;;;;;;5031909;28;20053;-72
2022/07/18 04:18:04;;;;;;;133.27;120.97;;;16.40;88.40;;;;;;5030922;28;20057;-72
2022/07/18 04:20:31;;;;;;;132.88;120.65;;;16.40;88.80;;;;;;5031871;28;20054;-72
2022/07/18 04:23:00;;;;;;;132.25;120.00;;;16.40;89.40;;;;;;5030970;28;20057;-71
2022/07/18 04:25:29;;;;;;;133.13;120.82;;;16.30;89.80;;;;;;5030961;28;20055;-72
2022/07/18 04:27:57;;;;;;;134.88;122.03;;;16.30;90.20;;;;;;5028702;28;20044;-72
2022/07/18 04:30:27;;;;;;;134.57;121.97;;;16.30;90.50;;;;;;5022337;28;20061;-72
2022/07/18 04:32:55;;;;;;;132.07;120.00;;;16.30;90.70;;;;;;5016639;28;20535;-72
2022/07/18 04:35:22;;;;;;;132.98;120.13;;;16.30;90.70;;;;;;5024196;28;20053;-72
2022/07/18 04:37:50;;;;;;;133.90;121.63;;;16.20;90.80;;;;;;5019089;28;20130;-71
2022/07/18 04:40:17;;;;;;;132.32;119.90;;;16.30;90.80;;;;;;5022223;28;20053;-71
2022/07/18 04:42:45;;;;;;;137.98;125.35;;;16.30;90.80;;;;;;5019537;28;20113;-71
2022/07/18 04:45:12;;;;;;;139.23;126.63;;;16.20;90.90;;;;;;5020605;28;20681;-72
2022/07/18 04:47:40;;;;;;;139.38;126.80;;;16.20;90.90;;;;;;5020821;28;20052;-72
2022/07/18 04:50:08;;;;;;;139.95;127.00;;;16.30;90.80;;;;;;5018546;28;20054;-72
2022/07/18 04:52:40;;;;;;;139.63;126.82;;;16.30;90.80;;;;;;5021957;28;20505;-72
2022/07/18 04:55:08;;;;;;;133.73;121.20;;;16.30;91.00;;;;;;5019509;28;20137;-72
2022/07/18 04:57:35;;;;;;;136.77;124.05;;;16.20;91.00;;;;;;5020546;28;20056;-72
2022/07/18 05:00:03;;;;;;;137.38;124.30;;;16.20;91.10;;;;;;5024958;28;20135;-71
2022/07/18 05:02:30;;;;;;;137.77;124.97;;;16.30;91.40;;;;;;5025837;28;20109;-72
2022/07/18 05:04:59;;;;;;;137.88;125.10;;;16.30;91.30;;;;;;5009720;28;20964;-72
2022/07/18 05:07:25;;;;;;;136.05;123.47;;;16.30;91.50;;;;;;5026497;28;20085;-72
2022/07/18 05:09:52;;;;;;;136.27;123.78;;;16.30;91.90;;;;;;5030879;28;20140;-72
2022/07/18 05:12:23;;;;;;;136.60;124.07;;;16.30;91.80;;;;;;5031131;28;20142;-71
2022/07/18 05:14:50;;;;;;;137.98;125.05;;;16.40;92.00;;;;;;5047875;28;20061;-72
2022/07/18 05:17:17;;;;;;;139.68;126.80;;;16.40;92.10;;;;;;5030944;28;20558;-71
2022/07/18 05:19:44;;;;;;;137.50;124.80;;;16.40;92.10;;;;;;5029841;28;20515;-72
2022/07/18 05:22:13;;;;;;;140.45;127.43;;;16.40;92.20;;;;;;5028724;28;20057;-71
2022/07/18 05:24:40;;;;;;;140.02;126.90;;;16.40;92.50;;;;;;5028044;28;20133;-71
2022/07/18 05:27:07;;;;;;;141.30;128.00;;;16.40;92.70;;;;;;5028650;28;20054;-72
2022/07/18 05:29:34;;;;;;;138.35;125.30;;;16.40;92.50;;;;;;5029793;28;20802;-71
2022/07/18 05:32:02;;;;;;;137.18;124.18;;;16.40;92.50;;;;;;5028900;28;20105;-72
2022/07/18 05:34:29;;;;;;;138.68;125.68;;;16.40;92.40;;;;;;5033830;28;20065;-71
2022/07/18 05:36:56;;;;;;;153.35;128.32;;;16.50;92.30;;;;;;5033905;28;20518;-71
2022/07/18 05:39:28;;;;;;;140.23;125.15;;;16.40;92.40;;;;;;5030563;28;20111;-72
2022/07/18 05:41:54;;;;;;;137.20;124.13;;;16.50;92.60;;;;;;5030980;28;20542;-72
2022/07/18 05:44:21;;;;;;;135.77;123.28;;;16.50;92.60;;;;;;5031711;28;20054;-72
2022/07/18 05:46:49;;;;;;;139.77;126.80;;;16.50;92.50;;;;;;5029245;28;20054;-72
2022/07/18 05:49:16;;;;;;;142.35;127.45;;;16.50;93.00;;;;;;5029157;28;20054;-73
2022/07/18 05:51:43;;;;;;;139.85;125.55;;;16.50;93.20;;;;;;5028975;28;20038;-72
2022/07/18 05:56:53;;;;;;;134.52;121.72;;;16.60;93.20;;;;;;4989566;28;20059;-72
2022/07/18 05:59:21;;;;;;;133.82;121.38;;;16.60;93.20;;;;;;4991266;28;20053;-71
2022/07/18 06:01:48;;;;;;;136.13;122.75;;;16.60;93.10;;;;;;4989052;28;20057;-72
2022/07/18 06:04:15;;;;;;;135.13;122.18;;;16.70;93.00;;;;;;4993831;28;20418;-71
2022/07/18 06:06:43;;;;;;;134.98;122.43;;;16.70;92.90;;;;;;4987923;28;20126;-72
2022/07/18 06:09:10;;;;;;;133.35;121.05;;;16.80;92.70;;;;;;4992371;28;20062;-71
2022/07/18 06:11:37;;;;;;;131.43;119.32;;;16.80;92.60;;;;;;4992493;28;20106;-71
2022/07/18 06:14:05;;;;;;;133.15;121.13;;;16.80;92.70;;;;;;4992455;28;20476;-72
2022/07/18 06:16:32;;;;;;;132.30;119.80;;;16.90;92.80;;;;;;4993904;28;20047;-71
2022/07/18 06:18:59;;;;;;;133.48;121.03;;;16.90;92.70;;;;;;4992567;28;20054;-71
2022/07/18 06:21:27;;;;;;;132.68;120.07;;;16.90;92.70;;;;;;4975571;28;20142;-72
2022/07/18 06:23:54;;;;;;;133.05;120.45;;;17.00;92.50;;;;;;4992567;28;20101;-71
2022/07/18 06:26:21;;;;;;;133.65;121.03;;;17.00;92.30;;;;;;4991022;28;20050;-71
2022/07/18 06:28:48;;;;;;;132.52;120.43;;;17.10;92.20;;;;;;4992399;28;20053;-70
2022/07/18 06:31:17;;;;;;;134.52;122.28;;;17.20;92.10;;;;;;4992896;28;20054;-69
2022/07/18 06:33:44;;;;;;;134.98;122.68;;;17.20;91.90;;;;;;4989619;28;20134;-70
2022/07/18 06:36:11;;;;;;;136.88;124.32;;;17.30;91.70;;;;;;4989960;28;20521;-69
2022/07/18 06:38:39;;;;;;;134.40;122.10;;;17.40;91.60;;;;;;4990351;28;20110;-69
2022/07/18 06:41:07;;;;;;;131.30;119.25;;;17.40;91.60;;;;;;5002585;28;20070;-68
2022/07/18 06:43:35;;;;;;;132.52;120.60;;;17.50;91.30;;;;;;4990302;28;20524;-69
2022/07/18 06:46:02;;;;;;;131.05;119.00;;;17.60;91.20;;;;;;4992702;28;20046;-68
2022/07/18 06:48:32;;;;;;;131.50;119.35;;;17.70;91.00;;;;;;4992517;28;20051;-68
2022/07/18 06:51:00;;;;;;;130.43;118.63;;;17.70;90.90;;;;;;4992451;28;20532;-68
2022/07/18 06:53:27;;;;;;;132.30;120.43;;;17.80;90.80;;;;;;4992875;28;20133;-69
2022/07/18 06:55:55;;;;;;;133.70;121.63;;;17.90;90.80;;;;;;5006876;28;20528;-69
2022/07/18 06:58:22;;;;;;;133.80;121.85;;;17.90;90.70;;;;;;4992579;28;20062;-69
2022/07/18 07:00:49;;;;;;;134.95;122.93;;;18.00;90.60;;;;;;4991064;28;20106;-68
2022/07/18 07:03:16;;;;;;;135.30;123.00;;;18.10;90.30;;;;;;4991009;28;20047;-69
2022/07/18 07:05:44;;;;;;;137.15;124.97;;;18.20;89.70;;;;;;4991648;28;20142;-69
2022/07/18 07:08:11;;;;;;;133.30;121.32;;;18.30;89.10;;;;;;4991440;28;20061;-69
2022/07/18 07:10:39;;;;;;;132.23;120.40;;;18.40;87.50;;;;;;4990946;28;20509;-69
2022/07/18 07:13:06;;;;;;;133.68;121.20;;;18.40;87.30;;;;;;4991831;28;20094;-68
2022/07/18 07:15:33;;;;;;;132.48;120.50;;;18.60;87.10;;;;;;4987967;28;20111;-70
2022/07/18 07:17:59;;;;;;;133.40;121.18;;;18.60;86.60;;;;;;4984173;28;20059;-69
2022/07/18 07:20:26;;;;;;;134.18;122.18;;;18.70;85.40;;;;;;4987940;28;20172;-69
2022/07/18 07:22:57;;;;;;;133.35;121.53;;;18.80;85.20;;;;;;4991714;28;20058;-69
2022/07/18 07:25:25;;;;;;;136.15;123.85;;;18.90;85.50;;;;;;4992053;28;20050;-69
2022/07/18 07:27:52;;;;;;;135.55;123.57;;;19.00;85.10;;;;;;4989661;28;20063;-70
2022/07/18 07:30:20;;;;;;;134.75;122.82;;;19.10;84.70;;;;;;4992040;28;20066;-70
2022/07/18 07:32:47;;;;;;;134.68;122.47;;;19.10;85.00;;;;;;4991582;28;20081;-70
2022/07/18 07:35:16;;;;;;;136.10;123.90;;;19.20;85.20;;;;;;4990799;28;20047;-70
2022/07/18 07:37:45;;;;;;;135.93;123.72;;;19.30;84.80;;;;;;4990578;28;20047;-70
2022/07/18 07:40:14;;;;;;;135.40;123.28;;;19.40;84.80;;;;;;4991872;28;20065;-70
2022/07/18 07:42:41;;;;;;;137.00;124.95;;;19.50;84.50;;;;;;4988093;28;20055;-70
2022/07/18 07:45:09;;;;;;;137.30;125.18;;;19.60;84.30;;;;;;4990843;28;20051;-69
2022/07/18 07:47:36;;;;;;;135.68;123.80;;;19.70;83.00;;;;;;4990452;28;20715;-69
2022/07/18 07:50:04;;;;;;;133.73;121.95;;;19.80;80.70;;;;;;4973315;28;20054;-69
2022/07/18 07:52:31;;;;;;;132.82;121.32;;;19.90;80.50;;;;;;5008063;28;20400;-69
2022/07/18 07:54:58;;;;;;;134.45;122.65;;;20.00;79.90;;;;;;4990244;28;20109;-69
2022/07/18 07:57:27;;;;;;;134.35;122.70;;;20.10;79.10;;;;;;4988640;28;20150;-69
2022/07/18 07:59:54;;;;;;;136.07;123.97;;;20.20;78.70;;;;;;4992100;28;20058;-69
2022/07/18 08:02:21;;;;;;;137.13;125.22;;;20.20;78.20;;;;;;4991735;28;20540;-69
2022/07/18 08:04:49;;;;;;;134.65;122.95;;;20.30;77.20;;;;;;4991629;28;20216;-69
2022/07/18 08:07:16;;;;;;;134.70;122.90;;;20.40;77.50;;;;;;4991261;28;20569;-69
2022/07/18 08:09:44;;;;;;;137.25;125.57;;;20.50;76.30;;;;;;4990083;28;20062;-69
2022/07/18 08:12:11;;;;;;;137.25;125.40;;;20.60;75.50;;;;;;4990755;28;20703;-69
2022/07/18 08:14:40;;;;;;;139.13;127.32;;;20.70;75.50;;;;;;5005360;28;20136;-69
2022/07/18 08:17:07;;;;;;;140.30;128.35;;;20.80;75.20;;;;;;5023095;28;20561;-70
2022/07/18 08:19:34;;;;;;;137.93;126.30;;;20.90;75.40;;;;;;4990913;28;20054;-69
2022/07/18 08:22:01;;;;;;;138.43;126.63;;;20.90;75.30;;;;;;4991328;28;20519;-69
2022/07/18 08:24:28;;;;;;;139.50;127.57;;;21.00;74.40;;;;;;4986664;28;20588;-69
2022/07/18 08:26:54;;;;;;;140.20;128.50;;;21.10;73.50;;;;;;4991979;28;20054;-69
2022/07/18 08:29:22;;;;;;;135.68;123.75;;;21.20;73.20;;;;;;4992437;28;20054;-69
2022/07/18 08:31:50;;;;;;;141.07;129.07;;;21.20;73.40;;;;;;4990930;28;20051;-69
2022/07/18 08:34:17;;;;;;;138.05;126.35;;;21.30;72.10;;;;;;4992102;28;20051;-69
2022/07/18 08:36:44;;;;;;;136.05;123.78;;;21.40;71.50;;;;;;4990378;28;20051;-70
2022/07/18 08:39:10;;;;;;;135.25;123.95;;;21.50;70.80;;;;;;5006759;28;20039;-70
2022/07/18 08:41:39;;;;;;;135.35;123.90;;;21.60;70.30;;;;;;4974241;28;20043;-70
2022/07/18 08:44:09;;;;;;;138.00;126.47;;;21.80;69.40;;;;;;4990590;28;20043;-70
2022/07/18 08:46:37;;;;;;;139.70;127.70;;;21.90;69.80;;;;;;4990713;28;20058;-69
2022/07/18 08:49:06;;;;;;;141.63;129.65;;;21.90;69.30;;;;;;4990403;28;20094;-70
2022/07/18 08:51:34;;;;;;;140.07;127.80;;;22.10;69.00;;;;;;4991824;28;20560;-72
2022/07/18 08:54:02;;;;;;;140.57;128.63;;;22.10;68.70;;;;;;4990644;28;20138;-71
2022/07/18 08:56:29;;;;;;;139.15;127.65;;;22.20;68.70;;;;;;4991260;28;20142;-72
2022/07/18 08:58:56;;;;;;;141.52;129.73;;;22.40;69.90;;;;;;4981962;28;20505;-72
2022/07/18 09:01:23;;;;;;;141.25;129.70;;;22.50;67.90;;;;;;4995150;28;20586;-72
2022/07/18 09:04:14;;;;;;;144.88;133.05;;;22.60;67.90;;;;;;4991087;28;20130;-72
2022/07/18 09:06:46;;;;;;;142.65;131.18;;;22.70;67.60;;;;;;4995587;28;20489;-72
2022/07/18 09:09:14;;;;;;;143.48;131.77;;;22.80;67.00;;;;;;4992859;28;20129;-72
2022/07/18 09:11:52;;;;;;;143.65;131.82;;;22.80;67.00;;;;;;4992415;28;20047;-72
2022/07/18 09:14:29;;;;;;;139.68;128.18;;;22.90;66.90;;;;;;4994832;28;20509;-70
2022/07/18 09:17:01;;;;;;;140.63;129.13;;;23.00;66.70;;;;;;5019476;28;20049;-72
2022/07/18 09:19:28;;;;;;;142.65;131.15;;;23.10;66.40;;;;;;5010550;28;20496;-72
2022/07/18 09:22:13;;;;;;;141.82;130.27;;;23.20;66.50;;;;;;4995457;28;20050;-72
2022/07/18 09:24:55;;;;;;;144.38;132.77;;;23.30;65.40;;;;;;4995101;28;20051;-72
2022/07/18 09:27:34;;;;;;;145.20;133.40;;;23.40;64.70;;;;;;4993464;28;20050;-72
2022/07/18 09:30:26;;;;;;;145.45;133.95;;;23.50;64.20;;;;;;4991315;28;20503;-72
2022/07/18 09:33:05;;;;;;;142.20;130.30;;;23.60;62.70;;;;;;4978408;28;20138;-72
2022/07/18 09:35:34;;;;;;;146.95;135.07;;;23.70;63.70;;;;;;4993989;28;20259;-72
2022/07/18 09:38:05;;;;;;;145.30;133.80;;;23.70;63.60;;;;;;4994405;28;20054;-72
2022/07/18 09:40:34;;;;;;;144.55;133.15;;;23.90;62.70;;;;;;5007421;28;20051;-72
2022/07/18 09:43:03;;;;;;;146.13;134.20;;;23.90;62.50;;;;;;4993322;28;20053;-74
2022/07/18 09:45:32;;;;;;;145.77;134.18;;;24.00;61.80;;;;;;5009363;28;20055;-72
2022/07/18 09:48:01;;;;;;;144.85;133.30;;;24.10;61.20;;;;;;4993570;28;20046;-71
2022/07/18 09:50:31;;;;;;;148.77;137.13;;;24.20;61.20;;;;;;4993973;28;20058;-71
2022/07/18 09:53:13;;;;;;;149.88;138.38;;;24.30;59.80;;;;;;4994390;28;20633;-71
2022/07/18 09:55:44;;;;;;;151.32;139.43;;;24.40;61.10;;;;;;4994037;28;20141;-72
2022/07/18 09:58:11;;;;;;;149.35;137.70;;;24.50;59.30;;;;;;4992057;28;20050;-71
2022/07/18 10:00:40;;;;;;;149.70;137.80;;;24.60;59.80;;;;;;4991510;28;20589;-71
2022/07/18 10:03:08;;;;;;;151.45;139.48;;;24.60;58.20;;;;;;4989944;28;20054;-71
2022/07/18 10:05:37;;;;;;;153.63;141.50;;;24.70;57.70;;;;;;4990432;28;20051;-71
2022/07/18 10:08:06;;;;;;;150.80;139.30;;;24.80;56.90;;;;;;4980887;28;20047;-71
2022/07/18 10:10:35;;;;;;;149.88;138.23;;;24.80;57.00;;;;;;5006355;28;20057;-71
2022/07/18 10:13:03;;;;;;;150.20;138.85;;;24.80;56.70;;;;;;4990529;28;20149;-71
2022/07/18 10:15:32;;;;;;;147.75;136.35;;;24.90;56.60;;;;;;4991852;28;20059;-71
2022/07/18 10:17:59;;;;;;;147.68;136.07;;;25.00;55.10;;;;;;4991429;28;20113;-71
2022/07/18 10:20:36;;;;;;;147.95;136.70;;;25.00;54.90;;;;;;4991976;28;20500;-72
2022/07/18 10:23:09;;;;;;;147.90;136.40;;;25.10;54.60;;;;;;4992743;28;20055;-72
2022/07/18 10:25:38;;;;;;;151.70;140.40;;;25.10;54.60;;;;;;4992263;28;20049;-72
2022/07/18 10:28:10;;;;;;;150.90;139.75;;;25.10;54.30;;;;;;4991257;28;20050;-72
2022/07/18 10:30:42;;;;;;;153.00;141.85;;;25.20;53.00;;;;;;4992940;28;20532;-72
2022/07/18 10:33:41;;;;;;;154.70;143.38;;;25.30;52.70;;;;;;4988422;28;20488;-72
2022/07/18 10:36:10;;;;;;;151.07;140.13;;;25.40;52.90;;;;;;4991419;28;20051;-72
2022/07/18 10:38:38;;;;;;;155.93;144.23;;;25.40;52.80;;;;;;4991642;28;20142;-72
2022/07/18 10:41:11;;;;;;;157.40;146.10;;;25.50;53.60;;;;;;4984933;28;20054;-72
2022/07/18 10:43:44;;;;;;;153.07;141.68;;;25.60;52.90;;;;;;4992462;28;20133;-73
2022/07/18 10:46:13;;;;;;;156.27;145.07;;;25.60;51.60;;;;;;5008799;28;20638;-72
2022/07/18 10:48:50;;;;;;;157.02;145.70;;;25.70;51.10;;;;;;4992166;28;20509;-72
2022/07/18 10:51:18;;;;;;;157.23;145.88;;;25.80;52.00;;;;;;4993616;28;20149;-72
2022/07/18 10:54:04;;;;;;;156.80;145.63;;;25.90;52.20;;;;;;4993472;28;20050;-73
2022/07/18 10:57:11;;;;;;;157.52;146.23;;;25.90;52.20;;;;;;4992896;28;20138;-72
2022/07/18 10:59:40;;;;;;;156.13;144.93;;;26.00;49.40;;;;;;4989938;28;20593;-71
2022/07/18 11:02:08;;;;;;;152.35;141.23;;;26.10;49.00;;;;;;5007604;28;20271;-72
2022/07/18 11:04:41;;;;;;;155.45;144.05;;;26.20;49.50;;;;;;5005924;28;20437;-72
2022/07/18 11:07:13;;;;;;;;;;;26.20;49.70;;;;;;4992494;28;20169;-71
2022/07/18 11:09:43;;;;;;;152.23;140.93;;;26.30;49.70;;;;;;4992033;28;19930;-71
2022/07/18 11:12:29;;;;;;;148.45;137.23;;;26.30;48.30;;;;;;5008204;28;20146;-72
2022/07/18 11:15:01;;;;;;;150.93;140.00;;;26.40;48.80;;;;;;4989338;28;20516;-72
2022/07/18 11:17:55;;;;;;;153.27;142.18;;;26.40;48.10;;;;;;4991008;28;20054;-72
2022/07/18 11:20:35;;;;;;;155.55;144.27;;;26.50;49.10;;;;;;4988554;28;20047;-72
2022/07/18 11:23:03;;;;;;;154.38;143.27;;;26.60;47.80;;;;;;4990854;28;20498;-71
2022/07/18 11:25:30;;;;;;;156.55;145.20;;;26.60;47.20;;;;;;4992689;28;20137;-72
2022/07/18 11:27:59;;;;;;;154.23;142.63;;;26.60;46.80;;;;;;4991879;28;20186;-71
2022/07/18 11:30:27;;;;;;;156.80;145.50;;;26.60;46.90;;;;;;4990337;28;20057;-71
2022/07/18 11:32:54;;;;;;;156.32;144.73;;;26.70;46.20;;;;;;4989886;28;20560;-71
2022/07/18 11:35:25;;;;;;;158.73;147.43;;;26.70;46.10;;;;;;4990892;28;20043;-72
2022/07/18 11:37:53;;;;;;;159.80;148.30;;;26.80;46.00;;;;;;4992138;28;20050;-72
2022/07/18 11:40:20;;;;;;;156.15;144.77;;;26.80;45.70;;;;;;4992260;28;20055;-72
2022/07/18 11:42:48;;;;;;;159.20;147.80;;;26.90;45.90;;;;;;4990729;28;20059;-71
2022/07/18 11:45:17;;;;;;;156.27;144.80;;;26.90;45.40;;;;;;4992190;28;20063;-71
2022/07/18 11:47:49;;;;;;;168.80;156.57;;;27.00;45.20;;;;;;4989148;28;20526;-71
2022/07/18 11:50:17;;;;;;;157.35;145.98;;;27.00;44.90;;;;;;4991320;28;20108;-72
2022/07/18 11:52:46;;;;;;;158.43;146.88;;;27.00;45.40;;;;;;4990090;28;20059;-72
2022/07/18 11:55:14;;;;;;;157.45;145.95;;;27.10;45.40;;;;;;4991177;28;20050;-72
2022/07/18 11:57:41;;;;;;;155.77;144.48;;;27.10;45.60;;;;;;4990024;28;20049;-72
2022/07/18 12:00:18;;;;;;;155.45;144.00;;;27.10;45.60;;;;;;4990927;28;20050;-72
2022/07/18 12:03:05;;;;;;;157.30;145.90;;;27.10;46.40;;;;;;5024979;28;20535;-72
2022/07/18 12:05:33;;;;;;;156.70;145.45;;;27.10;45.90;;;;;;4989609;28;20045;-72
2022/07/18 12:08:00;;;;;;;157.38;145.90;;;27.20;45.60;;;;;;4993526;28;20050;-72
2022/07/18 12:10:27;;;;;;;155.18;143.93;;;27.10;44.80;;;;;;4993657;28;20050;-72
2022/07/18 12:12:55;;;;;;;154.45;143.25;;;27.20;44.80;;;;;;4992509;28;20058;-72
2022/07/18 12:15:38;;;;;;;158.10;146.70;;;27.20;45.00;;;;;;4993344;28;20497;-72
2022/07/18 12:18:05;;;;;;;162.25;150.70;;;27.20;44.80;;;;;;4991756;28;20082;-72
2022/07/18 12:20:32;;;;;;;166.63;155.10;;;27.20;44.50;;;;;;4993627;28;20189;-72
2022/07/18 12:23:07;;;;;;;156.73;145.60;;;27.20;45.90;;;;;;4990656;28;20078;-72